createdAt,value
2019-05-12T00:00:35.123Z,18.74
2019-05-12T00:03:01.721Z,18.72
2019-05-12T00:05:28.297Z,18.70
2019-05-12T00:07:54.909Z,18.68
2019-05-12T00:10:21.477Z,18.67
2019-05-12T00:12:48.571Z,18.64
2019-05-12T00:15:15.253Z,18.62
2019-05-12T00:17:41.892Z,18.61
2019-05-12T00:20:08.741Z,18.59
2019-05-12T00:22:35.487Z,18.59
2019-05-12T00:25:03.748Z,18.56
2019-05-12T00:27:30.372Z,18.55
2019-05-12T00:29:58.878Z,18.54
2019-05-12T00:32:25.277Z,18.53
2019-05-12T00:34:51.837Z,18.53
2019-05-12T00:37:18.682Z,18.52
2019-05-12T00:39:47.678Z,18.51
2019-05-12T00:42:13.614Z,18.51
2019-05-12T00:44:40.181Z,18.51
2019-05-12T00:47:08.152Z,18.49
2019-05-12T00:49:34.982Z,18.47
2019-05-12T00:52:01.553Z,18.45
2019-05-12T00:54:28.479Z,18.43
2019-05-12T00:56:55.196Z,18.42
2019-05-12T00:59:21.790Z,18.41
2019-05-12T01:01:48.363Z,18.40
2019-05-12T01:04:14.969Z,18.38
2019-05-12T01:06:41.549Z,18.38
2019-05-12T01:09:08.815Z,18.36
2019-05-12T01:11:37.783Z,18.37
2019-05-12T01:14:04.027Z,18.36
2019-05-12T01:16:30.604Z,18.36
2019-05-12T01:18:58.608Z,18.35
2019-05-12T01:21:25.470Z,18.35
2019-05-12T01:23:56.665Z,18.33
2019-05-12T01:26:20.385Z,18.33
2019-05-12T01:28:48.778Z,18.34
2019-05-12T01:31:15.293Z,18.31
2019-05-12T01:33:41.911Z,18.29
2019-05-12T01:36:08.470Z,18.26
2019-05-12T01:38:35.073Z,18.26
2019-05-12T01:41:01.650Z,18.24
2019-05-12T01:43:28.251Z,18.21
2019-05-12T01:45:54.818Z,18.18
2019-05-12T01:48:21.422Z,18.14
2019-05-12T01:50:48.028Z,18.11
2019-05-12T01:53:14.628Z,18.07
2019-05-12T01:55:41.207Z,18.03
2019-05-12T01:58:08.503Z,17.98
2019-05-12T02:00:35.304Z,17.91
2019-05-12T02:03:01.922Z,17.83
2019-05-12T02:05:28.571Z,17.78
2019-05-12T02:07:55.171Z,17.72
2019-05-12T02:10:21.746Z,17.66
2019-05-12T02:12:49.078Z,17.59
2019-05-12T02:15:18.223Z,17.51
2019-05-12T02:17:44.293Z,17.45
2019-05-12T02:20:10.903Z,17.40
2019-05-12T02:22:38.838Z,17.36
2019-05-12T02:25:07.951Z,17.32
2019-05-12T02:27:33.969Z,17.29
2019-05-12T02:30:00.558Z,17.25
2019-05-12T02:32:35.482Z,17.22
2019-05-12T02:34:55.475Z,17.16
2019-05-12T02:37:22.057Z,17.11
2019-05-12T02:39:48.664Z,17.06
2019-05-12T02:42:15.748Z,17.00
2019-05-12T02:44:44.320Z,16.97
2019-05-12T02:47:10.802Z,16.93
2019-05-12T02:49:37.414Z,16.89
2019-05-12T02:52:05.114Z,16.86
2019-05-12T02:54:50.589Z,16.84
2019-05-12T02:57:00.319Z,16.81
2019-05-12T02:59:26.966Z,16.80
2019-05-12T03:01:55.053Z,16.76
2019-05-12T03:04:24.562Z,16.74
2019-05-12T03:06:50.382Z,16.71
2019-05-12T03:09:17.017Z,16.69
2019-05-12T03:11:44.703Z,16.67
2019-05-12T03:14:15.349Z,16.67
2019-05-12T03:16:39.874Z,16.65
2019-05-12T03:19:06.495Z,16.63
2019-05-12T03:21:35.167Z,16.62
2019-05-12T03:24:01.559Z,16.61
2019-05-12T03:26:28.136Z,16.58
2019-05-12T03:28:55.702Z,16.55
2019-05-12T03:31:25.541Z,16.52
2019-05-12T03:33:54.152Z,16.49
2019-05-12T03:36:19.053Z,16.46
2019-05-12T03:38:45.676Z,16.43
2019-05-12T03:41:14.779Z,16.39
2019-05-12T03:43:40.564Z,16.37
2019-05-12T03:46:07.134Z,16.35
2019-05-12T03:48:34.898Z,16.34
2019-05-12T03:51:01.798Z,16.33
2019-05-12T03:53:28.379Z,16.33
2019-05-12T03:55:55.416Z,16.34
2019-05-12T03:58:25.309Z,16.38
2019-05-12T04:00:50.445Z,16.41
2019-05-12T04:03:17.025Z,16.45
2019-05-12T04:05:45.288Z,16.50
2019-05-12T04:08:15.361Z,16.55
2019-05-12T04:10:40.375Z,16.60
2019-05-12T04:13:06.951Z,16.65
2019-05-12T04:15:34.674Z,16.70
2019-05-12T04:18:04.928Z,16.77
2019-05-12T04:20:30.291Z,16.84
2019-05-12T04:22:56.865Z,16.91
2019-05-12T04:25:25.028Z,16.96
2019-05-12T04:27:54.227Z,17.01
2019-05-12T04:30:20.164Z,17.06
2019-05-12T04:32:46.735Z,17.11
2019-05-12T04:35:14.806Z,17.17
2019-05-12T04:37:44.796Z,17.23
2019-05-12T04:40:10.140Z,17.30
2019-05-12T04:42:36.706Z,17.35
2019-05-12T04:45:04.456Z,17.42
2019-05-12T04:47:34.693Z,17.47
2019-05-12T04:49:59.541Z,17.52
2019-05-12T04:52:26.114Z,17.58
2019-05-12T04:54:55.237Z,17.64
2019-05-12T04:57:21.455Z,17.68
2019-05-12T04:59:48.217Z,17.73
2019-05-12T05:02:15.454Z,17.76
2019-05-12T05:04:44.142Z,17.82
2019-05-12T05:07:10.575Z,17.87
2019-05-12T05:09:37.171Z,17.91
2019-05-12T05:12:04.614Z,17.94
2019-05-12T05:14:33.867Z,17.98
2019-05-12T05:16:59.755Z,18.01
2019-05-12T05:19:26.374Z,18.04
2019-05-12T05:21:54.150Z,18.07
2019-05-12T05:24:23.391Z,18.11
2019-05-12T05:26:49.338Z,18.16
2019-05-12T05:29:15.906Z,18.23
2019-05-12T05:31:44.188Z,18.30
2019-05-12T05:34:11.024Z,18.38
2019-05-12T05:36:37.650Z,18.48
2019-05-12T05:39:04.418Z,18.58
2019-05-12T05:41:31.216Z,18.69
2019-05-12T05:43:58.479Z,18.79
2019-05-12T05:46:25.285Z,18.92
2019-05-12T05:48:54.141Z,19.04
2019-05-12T05:51:20.214Z,19.16
2019-05-12T05:53:49.777Z,19.27
2019-05-12T05:56:18.163Z,19.39
2019-05-12T05:58:46.981Z,19.49
2019-05-12T06:01:13.717Z,19.60
2019-05-12T06:03:40.138Z,19.72
2019-05-12T06:06:12.168Z,19.83
2019-05-12T06:08:35.048Z,19.94
2019-05-12T06:11:01.698Z,20.04
2019-05-12T06:13:31.774Z,20.15
2019-05-12T06:15:56.601Z,20.25
2019-05-12T06:18:28.940Z,20.37
2019-05-12T06:20:54.624Z,20.48
2019-05-12T06:23:23.897Z,20.57
2019-05-12T06:25:51.617Z,20.71
2019-05-12T06:28:18.020Z,20.82
2019-05-12T06:30:49.382Z,20.92
2019-05-12T06:33:14.387Z,21.03
2019-05-12T06:35:42.984Z,21.10
2019-05-12T06:38:13.571Z,21.17
2019-05-12T06:40:42.264Z,21.26
2019-05-12T06:43:08.581Z,21.35
2019-05-12T06:45:42.059Z,21.48
2019-05-12T06:48:03.525Z,21.58
2019-05-12T06:50:35.804Z,21.67
2019-05-12T06:52:58.750Z,21.78
2019-05-12T06:55:28.555Z,21.89
2019-05-12T06:57:54.001Z,21.97
2019-05-12T07:00:22.215Z,22.01
2019-05-12T07:02:52.447Z,22.03
2019-05-12T07:05:17.290Z,22.07
2019-05-12T07:07:46.007Z,22.14
2019-05-12T07:10:33.799Z,22.22
2019-05-12T07:12:57.566Z,22.32
2019-05-12T07:15:08.845Z,22.45
2019-05-12T07:17:43.789Z,22.56
2019-05-12T07:20:04.034Z,22.69
2019-05-12T07:22:31.857Z,22.83
2019-05-12T07:24:58.949Z,22.97
2019-05-12T07:27:35.773Z,23.11
2019-05-12T07:29:54.229Z,23.20
2019-05-12T07:32:22.320Z,23.29
2019-05-12T07:34:49.211Z,23.38
2019-05-12T07:37:15.828Z,23.49
2019-05-12T07:39:45.362Z,23.57
2019-05-12T07:42:10.769Z,23.57
2019-05-12T07:44:40.054Z,23.57
2019-05-12T07:47:05.658Z,23.58
2019-05-12T07:49:38.088Z,23.59
2019-05-12T07:52:03.408Z,23.62
2019-05-12T07:54:34.595Z,23.69
2019-05-12T07:56:57.776Z,23.79
2019-05-12T07:59:38.790Z,23.81
2019-05-12T08:01:55.436Z,23.82
2019-05-12T08:04:23.898Z,23.88
2019-05-12T08:06:50.423Z,23.90
2019-05-12T08:09:17.012Z,23.90
2019-05-12T08:11:43.631Z,23.91
2019-05-12T08:14:13.706Z,23.90
2019-05-12T08:16:38.551Z,23.93
2019-05-12T08:19:08.310Z,23.91
2019-05-12T08:21:36.999Z,23.87
2019-05-12T08:24:03.602Z,23.86
2019-05-12T08:26:30.100Z,23.84
2019-05-12T08:28:56.671Z,23.84
2019-05-12T08:31:31.981Z,23.80
2019-05-12T08:33:53.692Z,23.74
2019-05-12T08:36:19.927Z,23.67
2019-05-12T08:38:46.496Z,23.69
2019-05-12T08:41:15.080Z,23.63
2019-05-12T08:43:48.824Z,23.62
2019-05-12T08:46:12.126Z,23.63
2019-05-12T08:48:38.045Z,23.65
2019-05-12T08:51:13.555Z,23.67
2019-05-12T08:53:33.715Z,23.74
2019-05-12T08:56:05.019Z,23.77
2019-05-12T08:58:33.889Z,23.82
2019-05-12T09:00:56.968Z,23.87
2019-05-12T09:03:27.146Z,23.90
2019-05-12T09:05:53.705Z,23.92
2019-05-12T09:08:20.279Z,23.99
2019-05-12T09:10:48.044Z,24.06
2019-05-12T09:13:14.696Z,24.13
2019-05-12T09:15:43.590Z,24.26
2019-05-12T09:18:09.630Z,24.26
2019-05-12T09:20:39.937Z,24.31
2019-05-12T09:23:06.599Z,24.41
2019-05-12T09:25:34.116Z,24.53
2019-05-12T09:28:03.589Z,24.68
2019-05-12T09:30:29.347Z,24.84
2019-05-12T09:32:56.177Z,24.99
2019-05-12T09:35:23.571Z,25.06
2019-05-12T09:37:50.324Z,25.15
2019-05-12T09:40:20.582Z,25.29
2019-05-12T09:42:46.409Z,25.42
2019-05-12T09:45:13.755Z,25.61
2019-05-12T09:47:40.692Z,25.80
2019-05-12T09:50:09.554Z,25.90
2019-05-12T09:52:35.612Z,26.05
2019-05-12T09:55:04.266Z,26.20
2019-05-12T09:57:34.717Z,26.43
2019-05-12T09:59:59.668Z,26.60
2019-05-12T10:02:26.390Z,26.90
2019-05-12T10:04:56.430Z,27.40
2019-05-12T10:07:21.319Z,27.78
2019-05-12T10:09:49.161Z,28.37
2019-05-12T10:12:16.224Z,28.90
2019-05-12T10:14:45.953Z,29.48
2019-05-12T10:17:11.155Z,30.17
2019-05-12T10:19:37.757Z,30.69
2019-05-12T10:22:04.406Z,31.25
2019-05-12T10:24:32.768Z,31.77
2019-05-12T10:26:59.275Z,32.59
2019-05-12T10:29:30.738Z,33.40
2019-05-12T10:32:04.005Z,33.83
2019-05-12T10:34:36.023Z,34.12
2019-05-12T10:36:59.137Z,34.36
2019-05-12T10:39:25.752Z,34.44
2019-05-12T10:41:54.983Z,34.46
2019-05-12T10:44:21.736Z,34.44
2019-05-12T10:46:48.343Z,34.40
2019-05-12T10:49:14.952Z,34.31
2019-05-12T10:51:44.104Z,34.31
2019-05-12T10:54:13.188Z,34.53
2019-05-12T10:56:38.170Z,34.92
2019-05-12T10:59:04.784Z,35.46
2019-05-12T11:01:31.544Z,35.91
2019-05-12T11:03:58.496Z,36.66
2019-05-12T11:06:25.188Z,37.56
2019-05-12T11:08:53.701Z,38.63
2019-05-12T11:11:20.071Z,39.72
2019-05-12T11:13:49.874Z,40.80
2019-05-12T11:16:16.876Z,41.67
2019-05-12T11:18:43.746Z,42.49
2019-05-12T11:21:10.362Z,43.26
2019-05-12T11:23:37.014Z,43.85
2019-05-12T11:26:06.654Z,44.33
2019-05-12T11:28:33.768Z,45.06
2019-05-12T11:31:00.426Z,45.69
2019-05-12T11:33:27.043Z,45.48
2019-05-12T11:35:54.275Z,44.82
2019-05-12T11:38:21.036Z,43.67
2019-05-12T11:40:47.602Z,42.20
2019-05-12T11:43:14.585Z,40.63
2019-05-12T11:45:41.289Z,38.91
2019-05-12T11:48:10.141Z,37.46
2019-05-12T11:50:40.661Z,36.30
2019-05-12T11:53:04.566Z,35.36
2019-05-12T11:55:31.865Z,34.61
2019-05-12T11:58:00.438Z,34.03
2019-05-12T12:00:27.625Z,33.54
2019-05-12T12:02:54.196Z,33.15
2019-05-12T12:05:23.359Z,32.83
2019-05-12T12:07:52.764Z,32.50
2019-05-12T12:10:17.463Z,32.16
2019-05-12T12:12:47.178Z,31.89
2019-05-12T12:15:13.751Z,31.60
2019-05-12T12:17:40.564Z,31.33
2019-05-12T12:20:07.154Z,31.09
2019-05-12T12:22:33.971Z,30.92
2019-05-12T12:25:04.662Z,30.78
2019-05-12T12:27:29.000Z,30.68
2019-05-12T12:29:55.603Z,30.58
2019-05-12T12:32:23.278Z,30.52
2019-05-12T12:34:50.138Z,30.46
2019-05-12T12:37:18.877Z,30.41
2019-05-12T12:39:45.069Z,30.36
2019-05-12T12:42:14.658Z,30.28
2019-05-12T12:44:41.275Z,30.25
2019-05-12T12:47:07.824Z,30.18
2019-05-12T12:49:34.423Z,30.13
2019-05-12T12:52:03.150Z,30.12
2019-05-12T12:54:29.344Z,30.07
2019-05-12T12:57:00.026Z,29.98
2019-05-12T12:59:24.246Z,29.82
2019-05-12T13:01:50.829Z,29.61
2019-05-12T13:04:17.454Z,29.40
2019-05-12T13:06:54.383Z,29.16
2019-05-12T13:09:22.652Z,28.92
2019-05-12T13:11:44.474Z,28.65
2019-05-12T13:14:13.318Z,28.38
2019-05-12T13:16:39.618Z,28.13
2019-05-12T13:19:12.561Z,27.87
2019-05-12T13:21:36.449Z,27.66
2019-05-12T13:24:03.634Z,27.40
2019-05-12T13:26:30.345Z,27.15
2019-05-12T13:29:05.195Z,26.89
2019-05-12T13:31:33.308Z,26.66
2019-05-12T13:34:00.057Z,26.43
2019-05-12T13:36:34.593Z,26.20
2019-05-12T13:38:57.939Z,26.00
2019-05-12T13:41:24.524Z,25.80
2019-05-12T13:43:55.954Z,25.63
2019-05-12T13:46:19.450Z,25.47
2019-05-12T13:48:49.890Z,25.32
2019-05-12T13:51:15.789Z,25.11
2019-05-12T13:53:46.383Z,24.81
2019-05-12T13:56:10.788Z,24.48
2019-05-12T13:58:42.775Z,24.06
2019-05-12T14:01:19.951Z,23.61
2019-05-12T14:03:35.024Z,23.23
2019-05-12T14:06:03.582Z,22.91
2019-05-12T14:08:29.950Z,22.57
2019-05-12T14:10:59.532Z,22.27
2019-05-12T14:13:24.874Z,22.00
2019-05-12T14:15:53.687Z,21.78
2019-05-12T14:18:20.774Z,21.55
2019-05-12T14:20:50.828Z,21.31
2019-05-12T14:23:15.791Z,21.08
2019-05-12T14:25:43.755Z,20.83
2019-05-12T14:28:13.661Z,20.60
2019-05-12T14:30:41.202Z,20.38
2019-05-12T14:33:07.193Z,20.18
2019-05-12T14:35:40.829Z,19.96
2019-05-12T14:38:03.822Z,19.77
2019-05-12T14:40:31.529Z,19.57
2019-05-12T14:42:58.319Z,19.39
2019-05-12T14:45:29.747Z,19.22
2019-05-12T14:47:54.059Z,19.04
2019-05-12T14:50:20.803Z,18.90
2019-05-12T14:52:50.227Z,18.77
2019-05-12T14:55:15.713Z,18.66
2019-05-12T14:57:42.291Z,18.56
2019-05-12T15:00:11.372Z,18.47
2019-05-12T15:02:37.305Z,18.40
2019-05-12T15:05:06.551Z,18.31
2019-05-12T15:07:32.409Z,18.23
2019-05-12T15:10:02.568Z,18.14
2019-05-12T15:12:27.326Z,18.06
2019-05-12T15:14:54.321Z,18.00
2019-05-12T15:17:24.155Z,17.92
2019-05-12T15:19:49.437Z,17.82
2019-05-12T15:22:16.016Z,17.73
2019-05-12T15:24:44.121Z,17.63
2019-05-12T15:27:13.297Z,17.54
2019-05-12T15:29:39.184Z,17.44
2019-05-12T15:32:05.872Z,17.34
2019-05-12T15:34:33.771Z,17.21
2019-05-12T15:37:04.178Z,17.08
2019-05-12T15:39:30.964Z,16.98
2019-05-12T15:41:58.712Z,16.92
2019-05-12T15:44:31.380Z,16.87
2019-05-12T15:46:53.770Z,16.80
2019-05-12T15:49:20.352Z,16.72
2019-05-12T15:51:54.024Z,16.65
2019-05-12T15:54:15.259Z,16.59
2019-05-12T15:56:41.950Z,16.54
2019-05-12T15:59:14.688Z,16.47
2019-05-12T16:01:43.926Z,16.43
2019-05-12T16:04:12.064Z,16.37
2019-05-12T16:06:45.182Z,16.32
2019-05-12T16:09:07.343Z,16.22
2019-05-12T16:11:33.993Z,16.12
2019-05-12T16:14:00.571Z,16.04
2019-05-12T16:16:27.182Z,15.93
2019-05-12T16:18:54.070Z,15.83
2019-05-12T16:21:20.848Z,15.72
2019-05-12T16:23:47.434Z,15.61
2019-05-12T16:26:15.417Z,15.56
2019-05-12T16:28:44.137Z,15.52
2019-05-12T16:31:10.592Z,15.45
2019-05-12T16:33:37.178Z,15.38
2019-05-12T16:36:06.803Z,15.29
2019-05-12T16:38:32.104Z,15.22
2019-05-12T16:40:58.968Z,15.17
2019-05-12T16:43:29.404Z,15.13
2019-05-12T16:45:53.952Z,15.05
2019-05-12T16:48:32.024Z,14.97
2019-05-12T16:50:48.923Z,14.87
2019-05-12T16:53:21.513Z,14.79
2019-05-12T16:55:46.579Z,14.71
2019-05-12T16:58:13.498Z,14.66
2019-05-12T17:00:45.200Z,14.62
2019-05-12T17:03:08.660Z,14.57
2019-05-12T17:05:35.253Z,14.51
2019-05-12T17:08:04.044Z,14.46
2019-05-12T17:10:30.180Z,14.41
2019-05-12T17:12:56.862Z,14.37
2019-05-12T17:15:23.713Z,14.32
2019-05-12T17:17:50.810Z,14.29
2019-05-12T17:20:18.750Z,14.28
2019-05-12T17:22:54.066Z,14.27
2019-05-12T17:25:15.812Z,14.24
2019-05-12T17:27:44.511Z,14.24
2019-05-12T17:30:10.772Z,14.22
2019-05-12T17:32:56.537Z,14.20
2019-05-12T17:35:10.132Z,14.19
2019-05-12T17:37:41.375Z,14.18
2019-05-12T17:40:09.213Z,14.17
2019-05-12T17:42:33.470Z,14.17
2019-05-12T17:45:00.137Z,14.14
2019-05-12T17:47:26.812Z,14.12
2019-05-12T17:49:53.909Z,14.09
2019-05-12T17:52:20.568Z,14.08
2019-05-12T17:54:47.134Z,14.08
2019-05-12T17:57:17.842Z,14.08
2019-05-12T17:59:44.661Z,14.07
2019-05-12T18:02:14.842Z,14.08
2019-05-12T18:04:38.947Z,14.08
2019-05-12T18:07:12.817Z,14.09
2019-05-12T18:09:33.929Z,14.10
2019-05-12T18:12:00.759Z,14.07
2019-05-12T18:14:27.998Z,14.04
2019-05-12T18:17:02.512Z,14.01
2019-05-12T18:19:24.143Z,13.99
2019-05-12T18:21:54.823Z,13.96
2019-05-12T18:24:19.259Z,13.93
2019-05-12T18:26:47.103Z,13.92
2019-05-12T18:29:14.783Z,13.92
2019-05-12T18:31:43.685Z,13.91
2019-05-12T18:34:09.890Z,13.89
2019-05-12T18:36:36.503Z,13.87
2019-05-12T18:39:09.824Z,13.85
2019-05-12T18:41:33.739Z,13.85
2019-05-12T18:43:59.738Z,13.82
2019-05-12T18:46:26.317Z,13.80
2019-05-12T18:48:54.165Z,13.76
2019-05-12T18:51:23.619Z,13.75
2019-05-12T18:53:49.674Z,13.74
2019-05-12T18:56:21.585Z,13.72
2019-05-12T18:58:44.731Z,13.71
2019-05-12T19:01:13.945Z,13.69
2019-05-12T19:03:49.733Z,13.67
2019-05-12T19:06:07.994Z,13.65
2019-05-12T19:08:34.600Z,13.62
2019-05-12T19:11:14.966Z,13.60
2019-05-12T19:13:33.614Z,13.57
2019-05-12T19:16:06.723Z,13.53
2019-05-12T19:18:32.344Z,13.51
2019-05-12T19:20:56.240Z,13.49
2019-05-12T19:23:26.944Z,13.47
2019-05-12T19:25:51.132Z,13.45
2019-05-12T19:28:18.797Z,13.42
2019-05-12T19:30:45.410Z,13.41
2019-05-12T19:33:13.565Z,13.41
2019-05-12T19:35:40.436Z,13.41
2019-05-12T19:38:07.047Z,13.40
2019-05-12T19:40:33.632Z,13.38
2019-05-12T19:43:08.234Z,13.37
2019-05-12T19:45:33.669Z,13.37
2019-05-12T19:47:59.873Z,13.36
2019-05-12T19:50:26.450Z,13.32
2019-05-12T19:52:53.568Z,13.32
2019-05-12T19:55:20.401Z,13.29
2019-05-12T19:57:49.955Z,13.27
2019-05-12T20:00:15.688Z,13.25
2019-05-12T20:02:42.359Z,13.26
2019-05-12T20:05:08.934Z,13.26
2019-05-12T20:07:35.542Z,13.26
2019-05-12T20:10:04.462Z,13.25
2019-05-12T20:12:30.454Z,13.28
2019-05-12T20:14:59.097Z,13.29
2019-05-12T20:17:25.386Z,13.30
2019-05-12T20:19:54.023Z,13.33
2019-05-12T20:22:20.337Z,13.37
2019-05-12T20:24:46.922Z,13.38
2019-05-12T20:27:19.156Z,13.41
2019-05-12T20:29:43.426Z,13.45
2019-05-12T20:32:10.331Z,13.47
2019-05-12T20:34:49.163Z,13.51
2019-05-12T20:37:12.545Z,13.54
2019-05-12T20:39:33.595Z,13.57
2019-05-12T20:42:02.407Z,13.59
2019-05-12T20:44:28.486Z,13.59
2019-05-12T20:46:56.273Z,13.58
2019-05-12T20:49:24.157Z,13.56
2019-05-12T20:51:54.861Z,13.55
2019-05-12T20:54:19.367Z,13.53
2019-05-12T20:56:45.932Z,13.50
2019-05-12T20:59:13.868Z,13.46
2019-05-12T21:01:44.260Z,13.40
2019-05-12T21:04:30.414Z,13.33
2019-05-12T21:06:48.707Z,13.28
2019-05-12T21:09:15.352Z,13.23
2019-05-12T21:11:44.041Z,13.18
2019-05-12T21:14:11.792Z,13.12
2019-05-12T21:16:39.053Z,13.06
2019-05-12T21:19:10.187Z,13.00
2019-05-12T21:21:38.430Z,12.97
2019-05-12T21:24:04.874Z,12.95
2019-05-12T21:26:34.644Z,12.92
2019-05-12T21:28:59.075Z,12.92
2019-05-12T21:31:29.619Z,12.93
2019-05-12T21:33:54.047Z,12.95
2019-05-12T21:36:24.206Z,12.94
2019-05-12T21:38:48.961Z,12.94
2019-05-12T21:41:15.688Z,12.95
2019-05-12T21:43:43.730Z,12.97
2019-05-12T21:46:12.623Z,12.98
2019-05-12T21:48:38.924Z,12.97
2019-05-12T21:51:09.769Z,12.95
2019-05-12T21:53:34.477Z,12.92
2019-05-12T21:56:03.967Z,12.90
2019-05-12T21:58:29.688Z,12.89
2019-05-12T22:01:04.130Z,12.88
2019-05-12T22:03:24.765Z,12.85
2019-05-12T22:05:55.269Z,12.82
2019-05-12T22:08:21.987Z,12.78
2019-05-12T22:10:47.980Z,12.75
2019-05-12T22:13:17.677Z,12.72
2019-05-12T22:15:42.869Z,12.69
2019-05-12T22:18:09.448Z,12.66
2019-05-12T22:20:36.054Z,12.61
2019-05-12T22:23:06.962Z,12.56
2019-05-12T22:25:30.999Z,12.54
2019-05-12T22:27:59.230Z,12.50
2019-05-12T22:30:25.940Z,12.47
2019-05-12T22:32:54.130Z,12.44
2019-05-12T22:35:21.937Z,12.41
2019-05-12T22:37:49.163Z,12.39
2019-05-12T22:40:19.261Z,12.37
2019-05-12T22:42:44.529Z,12.37
2019-05-12T22:45:15.068Z,12.35
2019-05-12T22:47:39.636Z,12.34
2019-05-12T22:50:06.238Z,12.34
2019-05-12T22:52:38.683Z,12.34
2019-05-12T22:55:03.505Z,12.35
2019-05-12T22:57:37.636Z,12.36
2019-05-12T22:59:57.784Z,12.36
2019-05-12T23:02:28.903Z,12.33
2019-05-12T23:04:54.994Z,12.31
2019-05-12T23:07:27.765Z,12.31
2019-05-12T23:09:49.382Z,12.32
2019-05-12T23:12:20.016Z,12.32
2019-05-12T23:14:44.491Z,12.32
2019-05-12T23:17:11.157Z,12.31
2019-05-12T23:19:43.047Z,12.30
2019-05-12T23:22:06.088Z,12.29
2019-05-12T23:24:37.115Z,12.28
2019-05-12T23:27:01.149Z,12.26
2019-05-12T23:29:30.937Z,12.26
2019-05-12T23:32:00.652Z,12.26
2019-05-12T23:34:24.430Z,12.24
2019-05-12T23:36:56.885Z,12.24
2019-05-12T23:39:19.323Z,12.21
2019-05-12T23:41:45.901Z,12.20
2019-05-12T23:44:13.514Z,12.18
2019-05-12T23:46:40.376Z,12.16
2019-05-12T23:49:06.932Z,12.15
2019-05-12T23:51:34.034Z,12.17
2019-05-12T23:54:00.792Z,12.18
2019-05-12T23:56:27.390Z,12.20
2019-05-12T23:58:53.966Z,12.22
